Time;durP1;ratioP1;P1;durP2;ratioP2;P2;SDS_P1;SDS_P2;PMS_P1;PMS_P2;Temp;Humidity;BMP_temperature;BMP_pressure;BME280_temperature;BME280_humidity;BME280_pressure;Samples;Min_cycle;Max_cycle;Signal;HPM_P1;HPM_P2
2023/04/09 00:00:35;;;;;;;19.10;8.73;;;6.60;1.00;;;;;;5052662;28;20417;-53
2023/04/09 00:03:01;;;;;;;18.40;8.00;;;6.60;1.00;;;;;;5051855;28;20858;-53
2023/04/09 00:05:26;;;;;;;16.93;9.10;;;6.50;1.00;;;;;;5051457;28;20377;-53
2023/04/09 00:07:52;;;;;;;16.50;8.98;;;6.40;94.40;;;;;;5052129;28;21076;-53
2023/04/09 00:10:19;;;;;;;17.75;8.85;;;6.40;1.00;;;;;;5051205;28;20392;-53
2023/04/09 00:12:44;;;;;;;17.88;9.13;;;6.40;13.30;;;;;;5052053;28;20396;-53
2023/04/09 00:15:10;;;;;;;20.13;9.77;;;6.50;1.00;;;;;;5051919;28;20941;-53
2023/04/09 00:17:36;;;;;;;19.48;10.00;;;6.40;99.90;;;;;;5051797;28;20388;-53
2023/04/09 00:20:02;;;;;;;19.10;9.27;;;6.40;99.90;;;;;;5051950;28;20781;-56
2023/04/09 00:22:28;;;;;;;19.33;9.73;;;6.40;99.90;;;;;;5050997;28;20404;-56
2023/04/09 00:25:00;;;;;;;18.57;8.83;;;6.50;99.90;;;;;;5051744;28;20464;-56
2023/04/09 00:27:25;;;;;;;19.90;10.38;;;6.50;99.90;;;;;;5050928;28;20390;-56
2023/04/09 00:29:53;;;;;;;18.58;9.48;;;6.60;1.00;;;;;;5051632;28;20509;-53
2023/04/09 00:32:19;;;;;;;18.45;9.43;;;6.60;99.90;;;;;;5051064;28;20882;-53
2023/04/09 00:34:45;;;;;;;17.20;9.20;;;7.70;1.00;;;;;;5051913;28;20492;-53
2023/04/09 00:37:10;;;;;;;18.77;9.38;;;8.30;1.00;;;;;;5049648;28;20496;-54
2023/04/09 00:39:36;;;;;;;23.80;12.00;;;7.10;1.00;;;;;;5051634;28;20381;-53
2023/04/09 00:42:01;;;;;;;24.10;11.13;;;7.80;72.10;;;;;;5051912;28;20373;-53
2023/04/09 00:44:27;;;;;;;20.27;10.93;;;6.80;1.00;;;;;;5050927;28;20438;-53
2023/04/09 00:46:54;;;;;;;19.88;10.27;;;6.90;99.90;;;;;;5051432;28;20397;-54
2023/04/09 00:49:20;;;;;;;17.55;9.38;;;6.90;7.00;;;;;;5050585;28;20523;-53
2023/04/09 00:51:47;;;;;;;17.73;9.40;;;8.10;99.90;;;;;;5051537;28;20381;-53
2023/04/09 00:54:13;;;;;;;17.50;9.18;;;7.00;99.90;;;;;;5050143;28;20921;-53
2023/04/09 00:56:40;;;;;;;18.60;9.65;;;7.20;99.90;;;;;;5051381;28;20428;-53
2023/04/09 00:59:07;;;;;;;19.67;10.07;;;6.90;1.00;;;;;;5050761;28;20381;-54
2023/04/09 01:01:34;;;;;;;16.13;8.80;;;6.90;99.90;;;;;;5051430;28;20389;-53
2023/04/09 01:03:59;;;;;;;18.42;9.45;;;6.90;99.90;;;;;;5049643;28;20413;-53
2023/04/09 01:06:44;;;;;;;18.97;9.30;;;6.90;99.90;;;;;;5050634;28;20393;-54
2023/04/09 01:09:09;;;;;;;18.27;9.55;;;6.90;99.90;;;;;;5050635;28;20838;-54
2023/04/09 01:11:42;;;;;;;17.90;8.97;;;6.90;99.90;;;;;;5050903;28;20385;-53
2023/04/09 01:14:28;;;;;;;17.40;9.25;;;6.90;99.90;;;;;;5049773;28;20743;-54
2023/04/09 01:17:11;;;;;;;21.73;10.70;;;7.50;1.00;;;;;;5043088;28;20498;-53
2023/04/09 01:19:59;;;;;;;20.65;9.95;;;6.90;1.00;;;;;;5050825;28;20392;-53
2023/04/09 01:22:49;;;;;;;20.67;9.60;;;6.90;99.90;;;;;;5049916;28;20530;-53
2023/04/09 01:25:22;;;;;;;18.75;10.20;;;7.00;99.90;;;;;;5050549;28;20458;-53
2023/04/09 01:28:09;;;;;;;19.10;10.20;;;7.10;99.90;;;;;;5050282;28;20771;-53
2023/04/09 01:30:35;;;;;;;19.67;10.02;;;7.10;99.90;;;;;;5029425;28;20419;-53
2023/04/09 01:33:03;;;;;;;17.52;9.30;;;7.20;1.00;;;;;;5030723;28;20387;-53
2023/04/09 01:35:29;;;;;;;16.37;9.03;;;7.20;99.90;;;;;;5029141;28;20501;-53
2023/04/09 01:37:55;;;;;;;18.00;9.23;;;7.10;94.70;;;;;;5030825;28;20955;-53
2023/04/09 01:40:21;;;;;;;19.48;9.48;;;7.60;1.00;;;;;;5030052;28;20400;-54
2023/04/09 01:42:48;;;;;;;19.00;9.55;;;7.00;1.00;;;;;;5030530;28;20550;-53
2023/04/09 01:45:15;;;;;;;19.90;9.00;;;7.00;39.80;;;;;;5030299;28;20382;-54
2023/04/09 01:47:41;;;;;;;20.02;9.43;;;7.00;99.90;;;;;;5031055;28;20399;-53
2023/04/09 01:50:07;;;;;;;18.83;9.30;;;7.00;99.90;;;;;;5030275;28;20417;-54
2023/04/09 01:52:34;;;;;;;22.08;9.75;;;7.10;99.90;;;;;;5030440;28;20380;-53
2023/04/09 01:54:59;;;;;;;19.27;10.15;;;7.10;1.00;;;;;;5030580;28;20438;-53
2023/04/09 01:57:25;;;;;;;18.10;9.70;;;8.10;99.90;;;;;;5029511;28;20519;-53
2023/04/09 01:59:51;;;;;;;19.70;9.70;;;8.70;1.00;;;;;;5030179;28;20412;-54
2023/04/09 02:02:33;;;;;;;20.10;10.57;;;8.20;70.30;;;;;;5029559;28;20857;-54
2023/04/09 02:05:02;;;;;;;17.98;9.48;;;8.50;1.00;;;;;;5030662;28;20387;-53
2023/04/09 02:07:42;;;;;;;18.00;9.88;;;8.30;1.00;;;;;;5030079;28;20390;-53
2023/04/09 02:10:08;;;;;;;19.75;10.40;;;7.40;1.00;;;;;;5030101;28;20884;-53
2023/04/09 02:12:37;;;;;;;20.65;10.80;;;8.10;99.90;;;;;;5029996;28;20388;-53
2023/04/09 02:15:05;;;;;;;17.02;9.23;;;7.40;99.90;;;;;;5030390;28;20445;-53
2023/04/09 02:17:31;;;;;;;21.77;9.85;;;7.40;1.00;;;;;;5028752;28;20402;-53
2023/04/09 02:19:57;;;;;;;20.70;9.75;;;7.50;99.90;;;;;;5030015;28;20379;-53
2023/04/09 02:22:22;;;;;;;17.73;9.33;;;7.40;99.90;;;;;;5029745;28;20383;-53
2023/04/09 02:24:48;;;;;;;17.77;9.18;;;7.30;1.00;;;;;;5030053;28;20406;-53
2023/04/09 02:27:13;;;;;;;18.40;9.13;;;8.30;1.00;;;;;;5029313;28;20474;-53
2023/04/09 02:29:39;;;;;;;17.60;9.10;;;7.80;1.00;;;;;;5036742;28;20863;-53
2023/04/09 02:32:05;;;;;;;18.08;8.77;;;7.30;1.00;;;;;;5049693;28;20377;-53
2023/04/09 02:34:31;;;;;;;20.10;9.85;;;9.00;85.60;;;;;;5048989;28;20409;-53
2023/04/09 02:36:57;;;;;;;19.57;10.10;;;7.20;99.90;;;;;;5049936;28;20733;-53
2023/04/09 02:39:22;;;;;;;18.23;8.90;;;7.30;99.90;;;;;;5048707;28;20460;-54
2023/04/09 02:41:48;;;;;;;18.03;9.23;;;8.20;99.90;;;;;;5049423;28;20480;-53
2023/04/09 02:44:13;;;;;;;17.08;9.02;;;7.30;99.90;;;;;;5049508;28;20393;-54
2023/04/09 02:46:40;;;;;;;19.17;9.70;;;7.20;99.90;;;;;;5052414;28;20870;-53
2023/04/09 02:49:06;;;;;;;17.63;9.20;;;7.20;99.90;;;;;;5053786;28;20386;-53
2023/04/09 02:51:34;;;;;;;19.83;9.40;;;6.00;1.00;;;;;;5053274;28;20375;-53
2023/04/09 02:54:00;;;;;;;18.95;9.57;;;7.10;1.00;;;;;;5053600;28;20377;-53
2023/04/09 02:56:26;;;;;;;18.73;9.60;;;7.90;99.90;;;;;;5052951;28;20790;-53
2023/04/09 02:58:52;;;;;;;18.95;9.00;;;8.80;33.30;;;;;;5053367;28;20393;-53
2023/04/09 03:01:19;;;;;;;18.63;10.03;;;7.00;99.90;;;;;;5052835;28;20412;-53
2023/04/09 03:03:45;;;;;;;18.90;9.63;;;8.80;99.90;;;;;;5053272;28;20377;-53
2023/04/09 03:06:10;;;;;;;17.27;8.75;;;6.90;1.00;;;;;;5052806;28;20476;-54
2023/04/09 03:08:36;;;;;;;21.50;9.30;;;8.50;99.90;;;;;;5052817;28;20468;-53
2023/04/09 03:11:02;;;;;;;16.20;8.68;;;8.60;99.90;;;;;;5053359;28;20385;-53
2023/04/09 03:13:27;;;;;;;19.00;9.00;;;7.80;99.90;;;;;;5052443;28;20389;-53
2023/04/09 03:15:53;;;;;;;18.23;8.73;;;6.90;99.90;;;;;;5053002;28;20500;-53
2023/04/09 03:18:19;;;;;;;19.30;9.53;;;6.80;99.90;;;;;;5052729;28;20514;-53
2023/04/09 03:20:45;;;;;;;16.27;9.40;;;8.10;99.90;;;;;;5053033;28;20419;-53
2023/04/09 03:23:11;;;;;;;18.00;9.20;;;6.90;1.00;;;;;;5052016;28;20455;-53
2023/04/09 03:25:36;;;;;;;17.42;8.40;;;6.80;1.00;;;;;;5052844;28;20435;-53
2023/04/09 03:28:02;;;;;;;18.83;9.57;;;6.70;1.00;;;;;;5052751;28;20388;-53
2023/04/09 03:30:28;;;;;;;20.05;9.95;;;7.00;1.00;;;;;;5051623;28;21012;-53
2023/04/09 03:32:54;;;;;;;16.98;9.05;;;6.70;99.90;;;;;;5052767;28;20518;-53
2023/04/09 03:35:20;;;;;;;21.17;10.43;;;7.90;99.90;;;;;;5051797;28;20402;-53
2023/04/09 03:37:46;;;;;;;19.80;9.90;;;7.70;1.00;;;;;;5052681;28;20405;-53
2023/04/09 03:40:12;;;;;;;18.90;10.07;;;6.60;1.00;;;;;;5052395;28;20385;-53
2023/04/09 03:42:38;;;;;;;17.77;9.20;;;6.60;1.00;;;;;;5052159;28;20393;-53
2023/04/09 03:45:04;;;;;;;17.83;9.67;;;6.70;99.90;;;;;;5052404;28;20980;-53
2023/04/09 03:47:30;;;;;;;15.98;8.77;;;6.60;1.00;;;;;;5051773;28;20637;-53
2023/04/09 03:49:56;;;;;;;18.17;8.83;;;7.30;99.90;;;;;;5052644;28;20847;-53
2023/04/09 03:52:21;;;;;;;19.30;9.45;;;6.40;1.00;;;;;;5051395;28;20452;-53
2023/04/09 03:54:47;;;;;;;17.33;9.40;;;7.10;99.90;;;;;;5052565;28;20448;-53
2023/04/09 03:57:13;;;;;;;19.15;9.20;;;6.50;99.90;;;;;;5050496;28;20843;-54
2023/04/09 03:59:38;;;;;;;21.65;9.65;;;8.10;1.00;;;;;;5051977;28;20422;-54
2023/04/09 04:02:04;;;;;;;19.30;9.67;;;6.70;1.00;;;;;;5051670;28;20405;-54
2023/04/09 04:04:29;;;;;;;16.70;9.25;;;7.10;99.90;;;;;;5051323;28;20700;-54
2023/04/09 04:06:55;;;;;;;17.73;8.63;;;6.60;99.90;;;;;;5051859;28;20471;-54
2023/04/09 04:09:21;;;;;;;19.08;9.07;;;6.80;1.00;;;;;;5050533;28;20400;-54
2023/04/09 04:11:47;;;;;;;17.17;10.17;;;6.60;1.00;;;;;;5051720;28;20413;-54
2023/04/09 04:14:12;;;;;;;17.23;9.03;;;6.80;1.00;;;;;;5033170;28;20723;-54
2023/04/09 04:16:39;;;;;;;19.80;9.48;;;6.60;1.00;;;;;;5051559;28;20381;-54
2023/04/09 04:19:05;;;;;;;19.15;9.40;;;6.70;1.00;;;;;;5051742;28;20378;-54
2023/04/09 04:21:31;;;;;;;18.02;8.80;;;6.80;99.90;;;;;;5050853;28;20404;-53
2023/04/09 04:23:57;;;;;;;16.30;9.40;;;6.50;99.90;;;;;;5051910;28;20739;-53
2023/04/09 04:26:22;;;;;;;18.20;9.70;;;6.50;99.90;;;;;;5050813;28;20430;-54
2023/04/09 04:28:48;;;;;;;18.30;9.10;;;8.20;99.90;;;;;;5051607;28;20393;-54
2023/04/09 04:31:14;;;;;;;17.67;8.85;;;7.60;99.90;;;;;;5050815;28;20405;-54
2023/04/09 04:33:40;;;;;;;15.95;8.95;;;7.80;99.90;;;;;;5051587;28;20851;-54
2023/04/09 04:36:11;;;;;;;18.88;9.30;;;7.90;1.00;;;;;;5051231;28;20444;-54
2023/04/09 04:38:38;;;;;;;20.90;9.30;;;7.50;1.00;;;;;;5051807;28;20433;-54
2023/04/09 04:41:04;;;;;;;19.65;8.43;;;6.70;99.90;;;;;;5051847;28;20432;-53
2023/04/09 04:43:31;;;;;;;21.55;9.90;;;6.70;1.00;;;;;;5050706;28;20429;-53
2023/04/09 04:45:57;;;;;;;17.17;8.38;;;6.60;1.00;;;;;;5051758;28;20884;-54
2023/04/09 04:48:23;;;;;;;21.77;9.20;;;7.50;99.90;;;;;;5050657;28;20383;-54
2023/04/09 04:50:56;;;;;;;18.42;9.20;;;6.70;1.00;;;;;;5051230;28;20381;-53
2023/04/09 04:53:22;;;;;;;20.70;9.30;;;8.30;1.00;;;;;;5050757;28;20381;-54
2023/04/09 04:55:47;;;;;;;19.23;9.38;;;6.70;99.90;;;;;;5051288;28;20882;-54
2023/04/09 04:58:13;;;;;;;17.93;9.30;;;6.70;99.90;;;;;;5050240;28;20871;-54
2023/04/09 05:00:39;;;;;;;18.15;9.85;;;7.30;1.00;;;;;;5051457;28;20488;-54
2023/04/09 05:03:05;;;;;;;18.90;8.45;;;6.70;1.00;;;;;;5051129;28;20393;-53
2023/04/09 05:05:30;;;;;;;18.10;8.85;;;8.40;99.90;;;;;;5050388;28;20398;-54
2023/04/09 05:07:56;;;;;;;16.20;9.00;;;6.70;99.90;;;;;;5050894;28;20476;-54
2023/04/09 05:10:22;;;;;;;17.70;8.80;;;6.70;1.00;;;;;;5049483;28;20377;-54
2023/04/09 05:12:48;;;;;;;17.70;9.03;;;6.80;99.90;;;;;;5050927;28;20481;-53
2023/04/09 05:15:13;;;;;;;18.70;8.93;;;6.80;99.90;;;;;;5050507;28;20409;-54
2023/04/09 05:17:42;;;;;;;17.00;8.90;;;7.80;1.00;;;;;;5050408;28;20386;-54
2023/04/09 05:20:08;;;;;;;17.75;8.40;;;7.60;3.00;;;;;;5050579;28;20866;-54
2023/04/09 05:22:35;;;;;;;21.92;9.95;;;6.90;1.00;;;;;;5050184;28;20378;-54
2023/04/09 05:25:01;;;;;;;18.10;9.43;;;7.00;1.00;;;;;;5050539;28;20465;-54
2023/04/09 05:27:29;;;;;;;17.38;8.50;;;7.10;99.90;;;;;;5049745;28;20390;-54
2023/04/09 05:30:02;;;;;;;19.27;9.77;;;7.00;5.40;;;;;;5067254;28;20360;-53
2023/04/09 05:32:28;;;;;;;17.15;9.05;;;7.00;99.90;;;;;;5066399;28;20423;-54
2023/04/09 05:34:53;;;;;;;20.33;8.87;;;8.20;1.00;;;;;;5066978;28;20738;-54
2023/04/09 05:37:19;;;;;;;18.77;9.10;;;6.90;76.90;;;;;;5066485;28;20376;-54
2023/04/09 05:39:44;;;;;;;18.70;9.60;;;6.90;1.00;;;;;;5067320;28;20387;-53
2023/04/09 05:42:10;;;;;;;20.38;9.43;;;7.00;69.30;;;;;;5066871;28;20388;-54
2023/04/09 05:44:36;;;;;;;18.63;8.87;;;7.20;1.00;;;;;;5066570;28;20868;-54
2023/04/09 05:47:02;;;;;;;19.77;9.85;;;7.20;1.00;;;;;;5066720;28;20387;-54
2023/04/09 05:49:27;;;;;;;16.40;9.20;;;7.30;1.00;;;;;;5066084;28;20404;-54
2023/04/09 05:51:53;;;;;;;18.88;9.50;;;8.30;99.90;;;;;;5066843;28;20388;-54
2023/04/09 05:54:18;;;;;;;18.10;8.73;;;7.50;99.90;;;;;;5065737;28;20877;-54
2023/04/09 05:56:44;;;;;;;15.75;8.55;;;7.60;99.90;;;;;;5066512;28;20404;-54
2023/04/09 05:59:10;;;;;;;17.20;9.30;;;7.70;99.90;;;;;;5066784;28;20400;-54
2023/04/09 06:01:36;;;;;;;24.75;12.30;;;7.90;99.90;;;;;;5066155;28;20381;-54
2023/04/09 06:04:01;;;;;;;19.00;10.32;;;8.10;99.90;;;;;;5063564;28;20404;-54
2023/04/09 06:06:27;;;;;;;24.07;10.40;;;8.30;1.00;;;;;;5062005;28;20798;-54
2023/04/09 06:08:52;;;;;;;23.38;10.50;;;9.60;1.00;;;;;;5066299;28;20434;-54
2023/04/09 06:11:18;;;;;;;20.50;10.27;;;8.80;1.00;;;;;;5065756;28;20391;-54
2023/04/09 06:13:44;;;;;;;19.02;9.55;;;8.90;1.00;;;;;;5066145;28;20518;-54
2023/04/09 06:16:09;;;;;;;17.10;9.50;;;9.10;99.90;;;;;;5066264;28;20738;-54
2023/04/09 06:18:38;;;;;;;19.80;10.10;;;9.20;99.90;;;;;;5065385;28;20395;-53
2023/04/09 06:21:06;;;;;;;32.80;15.35;;;9.60;60.20;;;;;;5065727;28;20438;-53
2023/04/09 06:23:33;;;;;;;20.83;10.25;;;9.90;1.00;;;;;;5065312;28;20391;-53
2023/04/09 06:26:00;;;;;;;17.38;8.82;;;10.20;99.90;;;;;;5065806;28;20380;-53
2023/04/09 06:28:27;;;;;;;15.38;7.90;;;10.60;99.90;;;;;;5072126;28;20972;-53
2023/04/09 06:30:53;;;;;;;15.82;8.20;;;11.30;99.90;;;;;;5086159;28;20486;-53
2023/04/09 06:33:19;;;;;;;18.25;9.35;;;12.10;1.00;;;;;;5085302;28;20753;-54
2023/04/09 06:35:45;;;;;;;19.50;9.80;;;13.40;1.00;;;;;;5086299;28;20382;-54
2023/04/09 06:38:11;;;;;;;16.50;8.90;;;15.40;1.00;;;;;;5085807;28;20388;-54
2023/04/09 06:40:37;;;;;;;17.30;9.10;;;16.90;99.90;;;;;;5076232;28;20429;-54
2023/04/09 06:43:04;;;;;;;15.85;8.38;;;17.30;99.90;;;;;;5072284;28;20445;-54
2023/04/09 06:45:31;;;;;;;12.98;6.93;;;17.70;99.90;;;;;;5071308;28;20848;-54
2023/04/09 06:47:57;;;;;;;13.95;7.72;;;17.40;99.90;;;;;;5072223;28;20404;-54
2023/04/09 06:50:23;;;;;;;13.83;7.33;;;18.30;99.90;;;;;;5071757;28;20797;-54
2023/04/09 06:52:50;;;;;;;15.35;8.00;;;18.50;99.90;;;;;;5072305;28;20371;-55
2023/04/09 06:55:15;;;;;;;15.23;8.40;;;18.80;99.90;;;;;;5071514;28;20388;-55
2023/04/09 06:57:41;;;;;;;14.93;8.80;;;19.40;99.90;;;;;;5072553;28;20390;-54
2023/04/09 07:00:08;;;;;;;14.30;10.27;;;19.60;99.90;;;;;;5072304;28;20406;-55
2023/04/09 07:02:34;;;;;;;14.73;11.07;;;20.30;99.90;;;;;;5071057;28;20388;-55
2023/04/09 07:05:00;;;;;;;15.57;11.23;;;20.60;99.90;;;;;;5071949;28;20376;-54
2023/04/09 07:07:25;;;;;;;16.00;12.40;;;20.50;99.90;;;;;;5070655;28;20384;-55
2023/04/09 07:09:52;;;;;;;14.30;11.65;;;20.60;99.90;;;;;;5071530;28;20764;-55
2023/04/09 07:12:31;;;;;;;17.08;13.10;;;20.80;99.90;;;;;;5071248;28;20403;-55
2023/04/09 07:15:01;;;;;;;16.48;13.60;;;21.40;99.90;;;;;;5072154;28;20748;-55
2023/04/09 07:17:27;;;;;;;17.55;13.20;;;21.50;99.90;;;;;;5071373;28;20434;-55
2023/04/09 07:19:53;;;;;;;15.43;13.10;;;21.90;99.90;;;;;;5071950;28;20826;-55
2023/04/09 07:22:22;;;;;;;16.80;14.77;;;22.50;99.90;;;;;;5070908;28;20432;-55
2023/04/09 07:24:52;;;;;;;16.42;13.70;;;22.20;99.90;;;;;;5071755;28;20383;-55
2023/04/09 07:27:20;;;;;;;15.50;13.85;;;22.30;99.90;;;;;;5071335;28;20467;-55
2023/04/09 07:29:45;;;;;;;15.60;13.70;;;22.30;99.90;;;;;;5053687;28;20781;-55
2023/04/09 07:32:11;;;;;;;17.38;14.02;;;22.10;99.90;;;;;;5071423;28;20384;-56
2023/04/09 07:34:36;;;;;;;15.13;13.50;;;22.30;99.90;;;;;;5071075;28;20379;-57
2023/04/09 07:37:02;;;;;;;15.35;13.63;;;22.30;99.90;;;;;;5071269;28;20387;-58
2023/04/09 07:39:28;;;;;;;15.00;12.85;;;22.40;99.90;;;;;;5070880;28;20379;-57
2023/04/09 07:41:53;;;;;;;14.88;13.27;;;21.70;99.90;;;;;;5053320;28;20508;-58
2023/04/09 07:44:19;;;;;;;13.48;12.07;;;21.20;99.90;;;;;;5071054;28;20372;-58
2023/04/09 07:46:44;;;;;;;13.95;12.45;;;21.30;99.90;;;;;;5071279;28;20760;-58
2023/04/09 07:49:10;;;;;;;14.70;12.38;;;21.80;99.90;;;;;;5071171;28;20400;-58
2023/04/09 07:51:36;;;;;;;13.50;11.63;;;21.90;99.90;;;;;;5070060;28;20753;-58
2023/04/09 07:54:01;;;;;;;15.15;11.35;;;20.70;99.90;;;;;;5071160;28;20384;-57
2023/04/09 07:56:27;;;;;;;14.60;10.80;;;18.40;99.90;;;;;;5070154;28;20376;-57
2023/04/09 07:58:52;;;;;;;15.40;9.60;;;16.20;99.90;;;;;;5070823;28;20398;-57
2023/04/09 08:01:23;;;;;;;14.50;9.33;;;14.60;99.90;;;;;;5070143;28;20891;-57
2023/04/09 08:03:49;;;;;;;14.60;10.10;;;15.60;99.90;;;;;;5071020;28;20756;-54
2023/04/09 08:06:15;;;;;;;15.60;9.90;;;16.80;99.90;;;;;;5070407;28;20375;-55
2023/04/09 08:08:41;;;;;;;12.30;9.20;;;18.10;99.90;;;;;;5070526;28;20802;-55
2023/04/09 08:11:07;;;;;;;12.57;9.20;;;19.80;99.90;;;;;;5070795;28;20371;-55
2023/04/09 08:13:32;;;;;;;14.18;9.80;;;21.10;99.90;;;;;;5069868;28;20384;-55
2023/04/09 08:16:01;;;;;;;12.80;9.10;;;20.60;99.90;;;;;;5070443;28;20911;-55
2023/04/09 08:18:27;;;;;;;16.95;9.18;;;20.40;99.90;;;;;;5069933;28;20411;-55
2023/04/09 08:20:53;;;;;;;12.43;8.70;;;20.80;99.90;;;;;;5070580;28;20392;-55
2023/04/09 08:23:18;;;;;;;12.70;9.20;;;21.70;99.90;;;;;;5069972;28;20713;-55
2023/04/09 08:25:44;;;;;;;12.77;9.33;;;22.20;1.00;;;;;;5070446;28;20391;-55
2023/04/09 08:28:09;;;;;;;14.30;9.63;;;21.80;99.90;;;;;;5069759;28;20511;-55
2023/04/09 08:30:35;;;;;;;13.27;9.30;;;20.50;99.90;;;;;;5069457;28;20451;-55
2023/04/09 08:33:01;;;;;;;12.77;9.20;;;19.90;99.90;;;;;;5070170;28;20429;-55
2023/04/09 08:35:28;;;;;;;12.18;8.65;;;20.00;99.90;;;;;;5069632;28;20450;-55
2023/04/09 08:37:55;;;;;;;11.23;8.40;;;20.30;99.90;;;;;;5051999;28;20922;-55
2023/04/09 08:40:21;;;;;;;12.23;8.68;;;20.90;99.90;;;;;;5069549;28;20384;-55
2023/04/09 08:42:57;;;;;;;11.40;8.18;;;19.90;99.90;;;;;;5070328;28;20775;-55
2023/04/09 08:45:23;;;;;;;12.10;8.87;;;20.30;99.90;;;;;;5069473;28;20372;-54
2023/04/09 08:47:50;;;;;;;12.63;8.13;;;;;;;;;;5069818;28;20765;-55
2023/04/09 08:50:16;;;;;;;13.13;8.40;;;21.30;99.90;;;;;;5070003;28;20384;-55
2023/04/09 08:52:44;;;;;;;11.38;7.85;;;21.80;99.90;;;;;;5069570;28;20380;-55
2023/04/09 08:55:11;;;;;;;10.25;8.13;;;21.70;99.90;;;;;;5069626;28;20380;-55
2023/04/09 08:57:40;;;;;;;12.52;8.30;;;21.60;99.90;;;;;;5069063;28;20856;-55
2023/04/09 09:00:07;;;;;;;12.57;8.00;;;21.80;99.90;;;;;;5070217;28;20425;-55
2023/04/09 09:02:33;;;;;;;11.33;7.97;;;21.30;99.90;;;;;;5050936;28;20391;-55
2023/04/09 09:04:59;;;;;;;11.48;8.10;;;20.20;99.90;;;;;;5069804;28;20380;-55
2023/04/09 09:07:27;;;;;;;12.05;8.27;;;18.70;99.90;;;;;;5069281;28;20860;-55
2023/04/09 09:10:04;;;;;;;11.60;8.13;;;19.20;99.90;;;;;;5069643;28;20392;-55
2023/04/09 09:12:44;;;;;;;11.07;8.00;;;20.50;99.90;;;;;;5050967;28;20731;-55
2023/04/09 09:15:27;;;;;;;11.32;8.20;;;22.30;99.90;;;;;;5051705;28;20390;-56
2023/04/09 09:17:57;;;;;;;10.82;8.20;;;22.50;99.90;;;;;;5070000;28;20372;-55
2023/04/09 09:20:24;;;;;;;11.50;8.38;;;22.30;99.90;;;;;;5069033;28;20384;-55
2023/04/09 09:22:51;;;;;;;12.95;8.85;;;20.20;99.90;;;;;;5069972;28;20398;-55
2023/04/09 09:25:17;;;;;;;12.50;9.05;;;18.80;99.90;;;;;;5068741;28;20380;-56
2023/04/09 09:27:43;;;;;;;12.30;8.43;;;18.60;99.90;;;;;;5069242;28;20941;-55
2023/04/09 09:30:19;;;;;;;11.43;9.17;;;17.80;99.90;;;;;;5069735;28;20390;-55
2023/04/09 09:32:45;;;;;;;12.20;8.43;;;16.20;99.90;;;;;;5069798;28;20391;-54
2023/04/09 09:35:11;;;;;;;11.50;7.60;;;15.00;99.90;;;;;;5069738;28;20376;-54
2023/04/09 09:37:36;;;;;;;12.20;8.30;;;14.50;99.90;;;;;;5068662;28;20378;-54
2023/04/09 09:40:03;;;;;;;12.40;7.80;;;15.60;99.90;;;;;;5069673;28;20395;-55
2023/04/09 09:42:29;;;;;;;12.18;7.97;;;16.60;99.90;;;;;;5068893;28;20372;-54
2023/04/09 09:44:55;;;;;;;12.40;8.77;;;15.90;99.90;;;;;;5069367;28;20396;-55
2023/04/09 09:47:22;;;;;;;10.07;7.32;;;15.80;99.90;;;;;;5068434;28;20853;-54
2023/04/09 09:49:49;;;;;;;10.02;6.80;;;15.80;99.90;;;;;;5069341;28;20457;-54
2023/04/09 09:52:16;;;;;;;10.65;7.30;;;15.50;99.90;;;;;;5068762;28;20395;-55
2023/04/09 09:54:45;;;;;;;12.90;7.93;;;15.00;99.90;;;;;;5068850;28;20785;-54
2023/04/09 09:57:13;;;;;;;10.77;7.10;;;14.50;99.90;;;;;;5069213;28;20792;-54
2023/04/09 09:59:54;;;;;;;10.65;6.35;;;14.50;99.90;;;;;;5068751;28;20410;-54
2023/04/09 10:02:23;;;;;;;10.75;6.70;;;14.70;99.90;;;;;;5068909;28;20379;-55
2023/04/09 10:04:52;;;;;;;11.80;7.20;;;15.20;99.90;;;;;;5068853;28;20391;-55
2023/04/09 10:07:20;;;;;;;12.75;7.93;;;16.40;99.90;;;;;;5068749;28;20380;-55
2023/04/09 10:09:49;;;;;;;10.95;7.43;;;18.20;99.90;;;;;;5069016;28;20799;-55
2023/04/09 10:12:16;;;;;;;11.25;7.45;;;18.80;99.90;;;;;;5068718;28;20732;-55
2023/04/09 10:14:42;;;;;;;10.43;6.65;;;18.20;99.90;;;;;;5068822;28;20395;-55
2023/04/09 10:17:08;;;;;;;10.93;7.18;;;18.50;99.90;;;;;;5073121;28;20372;-55
2023/04/09 10:19:39;;;;;;;12.50;8.00;;;18.50;99.90;;;;;;5072245;28;20407;-55
2023/04/09 10:22:10;;;;;;;9.73;6.65;;;18.00;99.90;;;;;;5072846;28;20421;-55
2023/04/09 10:24:36;;;;;;;9.50;6.40;;;18.30;99.90;;;;;;5072080;28;20368;-55
2023/04/09 10:27:12;;;;;;;8.00;5.90;;;17.80;99.90;;;;;;5072948;28;20379;-55
2023/04/09 10:29:50;;;;;;;9.30;6.10;;;18.10;99.90;;;;;;5071814;28;20416;-55
2023/04/09 10:32:21;;;;;;;8.55;5.80;;;18.30;99.90;;;;;;5072073;28;20470;-55
2023/04/09 10:34:47;;;;;;;8.52;5.95;;;18.60;99.90;;;;;;5072538;28;20394;-55
2023/04/09 10:37:21;;;;;;;8.80;5.80;;;18.00;99.90;;;;;;5072950;28;20778;-55
2023/04/09 10:39:47;;;;;;;9.40;6.60;;;17.30;99.90;;;;;;5072548;28;20895;-54
2023/04/09 10:42:23;;;;;;;11.02;7.00;;;16.70;99.90;;;;;;5072561;28;20443;-55
2023/04/09 10:45:12;;;;;;;10.27;7.30;;;16.50;99.90;;;;;;5072403;28;20396;-55
2023/04/09 10:47:40;;;;;;;8.40;5.90;;;16.60;99.90;;;;;;5071896;28;20463;-55
2023/04/09 10:50:24;;;;;;;7.45;5.30;;;16.40;99.90;;;;;;5072448;28;20543;-54
2023/04/09 10:52:56;;;;;;;9.53;6.07;;;15.60;99.90;;;;;;5072268;28;20737;-54
2023/04/09 10:55:46;;;;;;;8.38;5.90;;;14.80;99.90;;;;;;5071587;28;20392;-55
2023/04/09 10:58:12;;;;;;;9.07;6.00;;;14.90;99.90;;;;;;5072680;28;20936;-54
2023/04/09 11:00:40;;;;;;;9.83;6.10;;;15.10;99.90;;;;;;5071423;28;20376;-54
2023/04/09 11:03:32;;;;;;;10.20;6.15;;;15.90;99.90;;;;;;5071791;28;20864;-54
2023/04/09 11:06:08;;;;;;;10.40;6.10;;;16.70;99.90;;;;;;5072171;28;20396;-54
2023/04/09 11:08:35;;;;;;;8.57;5.65;;;17.00;99.90;;;;;;5071073;28;20408;-54
2023/04/09 11:11:06;;;;;;;8.82;5.55;;;15.20;99.90;;;;;;5071767;28;20372;-54
2023/04/09 11:13:33;;;;;;;8.90;5.78;;;15.00;99.90;;;;;;5071750;28;20419;-54
2023/04/09 11:16:02;;;;;;;9.02;6.60;;;14.70;99.90;;;;;;5072225;28;20457;-54
2023/04/09 11:18:29;;;;;;;9.40;6.45;;;15.00;99.90;;;;;;5070884;28;20388;-54
2023/04/09 11:20:57;;;;;;;9.15;6.30;;;15.00;99.90;;;;;;5071909;28;20412;-54
2023/04/09 11:23:23;;;;;;;10.18;6.60;;;14.80;99.90;;;;;;5071119;28;20438;-54
2023/04/09 11:25:50;;;;;;;10.43;6.47;;;14.80;99.90;;;;;;5071459;28;20391;-54
2023/04/09 11:28:16;;;;;;;9.63;6.00;;;15.10;99.90;;;;;;5070801;28;20432;-54
2023/04/09 11:30:42;;;;;;;9.63;7.00;;;15.00;99.90;;;;;;5071476;28;20378;-54
2023/04/09 11:33:08;;;;;;;10.30;6.80;;;14.40;99.90;;;;;;5071580;28;20850;-54
2023/04/09 11:35:35;;;;;;;10.20;6.68;;;14.50;99.90;;;;;;5070795;28;20376;-54
2023/04/09 11:38:05;;;;;;;10.38;6.60;;;14.50;99.90;;;;;;5071245;28;20879;-54
2023/04/09 11:40:31;;;;;;;10.30;6.60;;;14.50;99.90;;;;;;5071004;28;20383;-54
2023/04/09 11:42:57;;;;;;;9.30;6.07;;;15.30;99.90;;;;;;5071466;28;20384;-54
2023/04/09 11:45:26;;;;;;;9.90;6.23;;;15.60;99.90;;;;;;5070487;28;20379;-54
2023/04/09 11:47:52;;;;;;;9.55;5.95;;;15.50;99.90;;;;;;5070886;28;20403;-54
2023/04/09 11:50:19;;;;;;;8.90;6.00;;;15.90;99.90;;;;;;5070556;28;20525;-54
2023/04/09 11:52:45;;;;;;;8.93;5.75;;;15.70;99.90;;;;;;5070918;28;20410;-54
2023/04/09 11:55:11;;;;;;;9.07;6.03;;;16.00;99.90;;;;;;5071315;28;20376;-54
2023/04/09 11:57:40;;;;;;;8.65;5.30;;;16.00;99.90;;;;;;5070622;28;20860;-54
2023/04/09 12:00:08;;;;;;;9.52;6.30;;;16.40;99.90;;;;;;5070667;28;20399;-54
2023/04/09 12:02:36;;;;;;;8.50;6.00;;;16.50;99.90;;;;;;5070548;28;20384;-54
2023/04/09 12:05:05;;;;;;;11.63;6.60;;;16.50;99.90;;;;;;5070903;28;20465;-54
2023/04/09 12:07:32;;;;;;;8.85;6.20;;;16.30;99.90;;;;;;5069804;28;20375;-54
2023/04/09 12:10:03;;;;;;;8.93;5.80;;;16.00;99.90;;;;;;5070718;28;20415;-54
2023/04/09 12:12:29;;;;;;;8.73;5.80;;;16.20;99.90;;;;;;5069950;28;20476;-54
2023/04/09 12:14:57;;;;;;;8.93;6.40;;;16.50;99.90;;;;;;5070959;28;20864;-54
2023/04/09 12:17:23;;;;;;;10.73;6.60;;;16.70;99.90;;;;;;5070238;28;20380;-54
2023/04/09 12:19:49;;;;;;;8.73;5.63;;;16.70;99.90;;;;;;5070678;28;20479;-54
2023/04/09 12:22:14;;;;;;;9.47;6.07;;;16.70;99.90;;;;;;5070658;28;20379;-54
2023/04/09 12:24:40;;;;;;;9.68;6.10;;;16.80;99.90;;;;;;5070181;28;20912;-54
2023/04/09 12:27:06;;;;;;;8.38;6.05;;;16.90;99.90;;;;;;5070998;28;20462;-54
2023/04/09 12:29:32;;;;;;;8.60;5.90;;;16.70;99.90;;;;;;5069768;28;20423;-54
2023/04/09 12:31:58;;;;;;;9.50;6.60;;;16.30;99.90;;;;;;5069915;28;20749;-54
2023/04/09 12:34:23;;;;;;;9.80;6.30;;;16.40;99.90;;;;;;5069330;28;20396;-55
2023/04/09 12:36:49;;;;;;;9.23;6.40;;;16.40;99.90;;;;;;5071099;28;20417;-54
2023/04/09 12:39:14;;;;;;;9.65;5.97;;;16.40;99.90;;;;;;5052423;28;20400;-54
2023/04/09 12:41:40;;;;;;;7.90;5.33;;;16.60;99.90;;;;;;5069275;28;20430;-54
2023/04/09 12:44:06;;;;;;;11.07;5.80;;;16.70;99.90;;;;;;5070087;28;20390;-54
2023/04/09 12:46:32;;;;;;;8.00;5.60;;;16.50;99.90;;;;;;5069314;28;20416;-54